Time;durP1;ratioP1;P1;durP2;ratioP2;P2;SDS_P1;SDS_P2;PMS_P1;PMS_P2;Temp;Humidity;BMP_temperature;BMP_pressure;BME280_temperature;BME280_humidity;BME280_pressure;Samples;Min_cycle;Max_cycle;Signal;HPM_P1;HPM_P2
2022/08/19 00:00:32;;;;;;;24.60;22.23;;;19.90;99.90;;;;;;5074143;28;20200;-77
2022/08/19 00:02:58;;;;;;;23.65;21.33;;;19.90;99.90;;;;;;5074056;28;20254;-77
2022/08/19 00:05:25;;;;;;;25.25;22.85;;;19.80;99.90;;;;;;5073823;28;20255;-77
2022/08/19 00:07:53;;;;;;;24.75;22.25;;;19.70;99.90;;;;;;5074089;28;20193;-77
2022/08/19 00:10:20;;;;;;;25.73;23.17;;;19.70;99.90;;;;;;5074007;28;20197;-77
2022/08/19 00:12:47;;;;;;;25.88;23.27;;;19.60;99.90;;;;;;5073911;28;20255;-77
2022/08/19 00:15:18;;;;;;;29.08;24.90;;;19.70;99.90;;;;;;5073930;28;20223;-77
2022/08/19 00:17:46;;;;;;;28.27;25.17;;;19.60;99.90;;;;;;5073809;28;20193;-77
2022/08/19 00:20:17;;;;;;;28.77;25.88;;;19.50;99.90;;;;;;5073621;28;20266;-77
2022/08/19 00:22:44;;;;;;;28.17;25.38;;;19.50;99.90;;;;;;5073968;28;20225;-77
2022/08/19 00:25:13;;;;;;;27.67;24.88;;;19.40;99.90;;;;;;5073540;28;20630;-77
2022/08/19 00:27:39;;;;;;;27.63;24.85;;;19.40;99.90;;;;;;5073611;28;20266;-77
2022/08/19 00:30:09;;;;;;;29.50;26.48;;;19.40;99.90;;;;;;5073335;28;20245;-77
2022/08/19 00:32:36;;;;;;;29.05;26.25;;;19.30;99.90;;;;;;5073462;28;20201;-77
2022/08/19 00:35:03;;;;;;;30.52;27.33;;;19.30;99.90;;;;;;5073646;28;20250;-77
2022/08/19 00:37:30;;;;;;;30.00;26.90;;;19.30;99.90;;;;;;5073508;28;20193;-77
2022/08/19 00:39:56;;;;;;;29.55;26.45;;;19.30;99.90;;;;;;5073522;28;20209;-77
2022/08/19 00:42:28;;;;;;;29.17;26.17;;;19.20;99.90;;;;;;5073066;28;20771;-77
2022/08/19 00:44:54;;;;;;;29.90;26.80;;;19.20;99.90;;;;;;5073449;28;20220;-77
2022/08/19 00:47:21;;;;;;;31.00;27.85;;;19.20;99.90;;;;;;5074150;28;20247;-78
2022/08/19 00:49:51;;;;;;;29.42;26.42;;;19.20;99.90;;;;;;5073680;28;20660;-78
2022/08/19 00:52:22;;;;;;;29.98;26.70;;;19.10;99.90;;;;;;5073463;28;20197;-77
2022/08/19 00:54:49;;;;;;;28.80;25.83;;;19.10;99.90;;;;;;5073356;28;20786;-77
2022/08/19 00:57:19;;;;;;;31.02;27.88;;;19.10;99.90;;;;;;5073166;28;20197;-77
2022/08/19 00:59:52;;;;;;;30.73;27.67;;;19.00;99.90;;;;;;5073318;28;20189;-77
2022/08/19 01:02:19;;;;;;;29.85;26.85;;;19.00;99.90;;;;;;5073196;28;20296;-77
2022/08/19 01:04:46;;;;;;;30.40;26.55;;;18.90;99.90;;;;;;5073066;28;20224;-78
2022/08/19 01:07:13;;;;;;;30.75;27.45;;;18.90;99.90;;;;;;5073115;28;20200;-78
2022/08/19 01:09:40;;;;;;;29.85;26.83;;;18.90;99.90;;;;;;5072896;28;20591;-77
2022/08/19 01:12:07;;;;;;;30.08;26.88;;;18.90;99.90;;;;;;5072848;28;20205;-78
2022/08/19 01:14:34;;;;;;;32.60;27.83;;;18.80;99.90;;;;;;5073047;28;20204;-79
2022/08/19 01:17:03;;;;;;;30.33;27.13;;;18.80;99.90;;;;;;5073019;28;20196;-78
2022/08/19 01:19:35;;;;;;;30.35;26.90;;;18.90;99.90;;;;;;5072721;28;20652;-78
2022/08/19 01:22:06;;;;;;;29.95;26.95;;;18.90;99.90;;;;;;5072810;28;20197;-78
2022/08/19 01:24:34;;;;;;;29.02;25.92;;;18.90;99.90;;;;;;5072608;28;20225;-78
2022/08/19 01:27:04;;;;;;;29.85;26.73;;;18.90;99.90;;;;;;5072907;28;20193;-78
2022/08/19 01:29:31;;;;;;;32.17;28.67;;;18.90;99.90;;;;;;5073159;28;20193;-78
2022/08/19 01:31:59;;;;;;;30.77;27.58;;;18.90;99.90;;;;;;5073200;28;20197;-78
2022/08/19 01:34:25;;;;;;;30.63;27.42;;;18.80;99.90;;;;;;5073039;28;20217;-78
2022/08/19 01:36:52;;;;;;;30.83;27.52;;;18.90;99.90;;;;;;5072548;28;20648;-78
2022/08/19 01:39:21;;;;;;;29.60;26.48;;;18.90;99.90;;;;;;5072609;28;20204;-78
2022/08/19 01:41:49;;;;;;;29.83;26.50;;;18.90;99.90;;;;;;5073122;28;20675;-78
2022/08/19 01:44:20;;;;;;;29.90;26.77;;;18.90;99.90;;;;;;5076383;28;20224;-78
2022/08/19 01:46:48;;;;;;;32.15;27.65;;;19.00;99.90;;;;;;5076682;28;20204;-78
2022/08/19 01:49:16;;;;;;;30.13;27.08;;;19.00;99.90;;;;;;5076613;28;20251;-78
2022/08/19 01:51:43;;;;;;;30.83;27.73;;;18.90;99.90;;;;;;5076377;28;20250;-78
2022/08/19 01:54:12;;;;;;;30.75;27.50;;;18.90;99.90;;;;;;5076587;28;20261;-78
2022/08/19 01:56:39;;;;;;;30.23;27.00;;;18.90;99.90;;;;;;5076615;28;20208;-78
2022/08/19 01:59:15;;;;;;;32.00;28.80;;;18.90;99.90;;;;;;5076574;28;20571;-78
2022/08/19 02:01:42;;;;;;;30.27;27.08;;;18.90;99.90;;;;;;5076599;28;20270;-78
2022/08/19 02:04:09;;;;;;;30.25;27.10;;;18.90;99.90;;;;;;5076202;28;20244;-77
2022/08/19 02:06:36;;;;;;;30.73;27.48;;;18.90;99.90;;;;;;5076307;28;20225;-77
2022/08/19 02:09:04;;;;;;;32.58;29.20;;;19.00;99.90;;;;;;5076105;28;20717;-78
2022/08/19 02:11:33;;;;;;;31.38;27.98;;;18.90;99.90;;;;;;5076190;28;20590;-77
2022/08/19 02:14:01;;;;;;;32.25;28.27;;;19.00;99.90;;;;;;5076106;28;20247;-78
2022/08/19 02:16:30;;;;;;;31.42;28.08;;;19.00;99.90;;;;;;5076036;28;20201;-77
2022/08/19 02:19:00;;;;;;;31.42;27.98;;;19.00;99.90;;;;;;5075929;28;20197;-78
2022/08/19 02:21:28;;;;;;;32.22;28.83;;;19.00;99.90;;;;;;5076073;28;20228;-77
2022/08/19 02:23:55;;;;;;;34.10;28.90;;;19.00;99.90;;;;;;5075863;28;20196;-78
2022/08/19 02:26:22;;;;;;;33.45;28.67;;;19.00;99.90;;;;;;5075642;28;20743;-77
2022/08/19 02:28:49;;;;;;;30.67;27.38;;;19.00;99.90;;;;;;5075735;28;20197;-78
2022/08/19 02:31:18;;;;;;;34.08;28.08;;;19.10;99.90;;;;;;5075597;28;20274;-77
2022/08/19 02:33:47;;;;;;;33.47;29.55;;;19.10;99.90;;;;;;5075783;28;20584;-78
2022/08/19 02:36:15;;;;;;;34.05;28.40;;;19.10;99.90;;;;;;5075803;28;20197;-78
2022/08/19 02:38:43;;;;;;;32.95;28.38;;;19.00;99.90;;;;;;5075590;28;20197;-78
2022/08/19 02:41:14;;;;;;;33.50;29.80;;;19.10;99.90;;;;;;5075536;28;20224;-77
2022/08/19 02:43:41;;;;;;;34.50;28.98;;;19.00;99.90;;;;;;5075194;28;20290;-78
2022/08/19 02:46:13;;;;;;;34.47;29.85;;;19.00;99.90;;;;;;5075479;28;20281;-78
2022/08/19 02:48:40;;;;;;;32.00;28.38;;;19.00;99.90;;;;;;5075492;28;20607;-77
2022/08/19 02:51:08;;;;;;;32.20;28.58;;;19.10;99.90;;;;;;5075409;28;20254;-78
2022/08/19 02:53:34;;;;;;;32.30;28.23;;;19.10;99.90;;;;;;5075073;28;20201;-78
2022/08/19 02:56:01;;;;;;;34.28;29.25;;;19.10;99.90;;;;;;5075209;28;20209;-78
2022/08/19 02:58:28;;;;;;;33.15;28.98;;;19.10;99.90;;;;;;5075164;28;20201;-78
2022/08/19 03:00:57;;;;;;;31.15;27.85;;;19.10;99.90;;;;;;5075295;28;20193;-78
2022/08/19 03:03:24;;;;;;;32.67;29.17;;;19.10;99.90;;;;;;5075259;28;20197;-78
2022/08/19 03:05:50;;;;;;;31.35;27.95;;;19.10;99.90;;;;;;5075112;28;20235;-78
2022/08/19 03:08:19;;;;;;;34.35;29.08;;;19.10;99.90;;;;;;5075066;28;20273;-77
2022/08/19 03:10:48;;;;;;;33.53;28.73;;;19.10;99.90;;;;;;5074898;28;20204;-78
2022/08/19 03:13:16;;;;;;;32.30;28.88;;;19.10;99.90;;;;;;5074925;28;20748;-77
2022/08/19 03:15:44;;;;;;;32.63;27.63;;;19.10;99.90;;;;;;5075014;28;20245;-78
2022/08/19 03:18:11;;;;;;;33.63;28.17;;;19.10;99.90;;;;;;5074760;28;20246;-78
2022/08/19 03:20:43;;;;;;;34.92;29.02;;;19.10;99.90;;;;;;5074909;28;20254;-78
2022/08/19 03:23:10;;;;;;;33.40;29.48;;;19.10;99.90;;;;;;5074740;28;20198;-78
2022/08/19 03:25:40;;;;;;;31.38;27.98;;;19.10;99.90;;;;;;5074694;28;20278;-78
2022/08/19 03:28:07;;;;;;;32.80;28.10;;;19.10;99.90;;;;;;5074946;28;20284;-78
2022/08/19 03:30:34;;;;;;;32.53;27.45;;;19.10;99.90;;;;;;5074759;28;20560;-78
2022/08/19 03:33:01;;;;;;;34.00;27.92;;;19.10;99.90;;;;;;5074667;28;20652;-78
2022/08/19 03:35:28;;;;;;;32.30;28.08;;;19.20;99.90;;;;;;5074967;28;20232;-78
2022/08/19 03:37:56;;;;;;;31.45;27.75;;;19.10;99.90;;;;;;5074558;28;20243;-78
2022/08/19 03:40:22;;;;;;;33.67;28.17;;;19.10;99.90;;;;;;5074771;28;20219;-78
2022/08/19 03:42:50;;;;;;;31.63;27.90;;;19.10;99.90;;;;;;5075343;28;20267;-78
2022/08/19 03:45:17;;;;;;;33.47;28.58;;;19.10;99.90;;;;;;5075056;28;20221;-78
2022/08/19 03:47:45;;;;;;;33.00;27.88;;;19.10;99.90;;;;;;5076002;28;20197;-78
2022/08/19 03:50:11;;;;;;;31.63;27.30;;;19.10;99.90;;;;;;5074486;28;20201;-78
2022/08/19 03:52:39;;;;;;;31.85;26.88;;;19.10;99.90;;;;;;5074153;28;20239;-78
2022/08/19 03:55:06;;;;;;;34.20;27.52;;;19.10;99.90;;;;;;5074198;28;20197;-78
2022/08/19 03:57:34;;;;;;;31.13;27.40;;;19.10;99.90;;;;;;5073960;28;20622;-78
2022/08/19 04:00:05;;;;;;;31.85;27.15;;;19.00;99.90;;;;;;5074118;28;20205;-77
2022/08/19 04:02:31;;;;;;;32.28;28.05;;;19.10;99.90;;;;;;5074109;28;20204;-77
2022/08/19 04:04:58;;;;;;;32.10;28.15;;;19.00;99.90;;;;;;5073249;28;20201;-78
2022/08/19 04:07:24;;;;;;;30.35;26.85;;;19.00;99.90;;;;;;5074013;28;20282;-78
2022/08/19 04:09:53;;;;;;;34.22;29.40;;;19.00;99.90;;;;;;5073916;28;20205;-77
2022/08/19 04:12:20;;;;;;;33.83;28.42;;;18.90;99.90;;;;;;5073928;28;20659;-78
2022/08/19 04:14:47;;;;;;;32.58;28.25;;;18.90;99.90;;;;;;5073739;28;20280;-78
2022/08/19 04:17:15;;;;;;;32.03;27.80;;;18.90;99.90;;;;;;5073602;28;20205;-78
2022/08/19 04:19:42;;;;;;;31.83;28.05;;;19.00;99.90;;;;;;5073482;28;20197;-78
2022/08/19 04:22:10;;;;;;;32.25;27.48;;;19.00;99.90;;;;;;5073762;28;20254;-78
2022/08/19 04:24:37;;;;;;;33.78;29.05;;;19.00;99.90;;;;;;5073699;28;20207;-78
2022/08/19 04:27:05;;;;;;;31.52;27.85;;;18.90;99.90;;;;;;5073449;28;20255;-78
2022/08/19 04:29:32;;;;;;;34.20;28.90;;;19.00;99.90;;;;;;5073573;28;20251;-78
2022/08/19 04:31:59;;;;;;;34.20;29.08;;;19.00;99.90;;;;;;5073313;28;20193;-78
2022/08/19 04:34:29;;;;;;;34.90;29.10;;;19.00;99.90;;;;;;5073432;28;20278;-78
2022/08/19 04:36:59;;;;;;;31.88;28.45;;;19.00;99.90;;;;;;5073419;28;20236;-78
2022/08/19 04:42:38;;;;;;;34.67;28.33;;;18.90;99.90;;;;;;5073160;28;20659;-78
2022/08/19 04:45:02;;;;;;;36.83;29.27;;;19.00;99.90;;;;;;5073232;28;20196;-77
2022/08/19 04:47:29;;;;;;;33.75;30.08;;;19.00;99.90;;;;;;5072912;28;20224;-77
2022/08/19 04:49:57;;;;;;;33.45;29.45;;;19.00;99.90;;;;;;5073129;28;20209;-77
2022/08/19 04:52:24;;;;;;;33.10;28.95;;;19.00;99.90;;;;;;5073040;28;20204;-77
2022/08/19 04:54:50;;;;;;;36.03;30.05;;;18.90;99.90;;;;;;5072843;28;20597;-77
2022/08/19 04:57:17;;;;;;;34.42;29.52;;;18.90;99.90;;;;;;5073191;28;20205;-77
2022/08/19 04:59:43;;;;;;;36.63;30.15;;;18.90;99.90;;;;;;5073069;28;20251;-78
2022/08/19 05:02:10;;;;;;;34.75;29.52;;;18.90;99.90;;;;;;5073009;28;20226;-78
2022/08/19 05:04:39;;;;;;;35.45;31.20;;;19.00;99.90;;;;;;5072944;28;20206;-78
2022/08/19 05:07:07;;;;;;;32.65;28.95;;;19.10;99.90;;;;;;5072928;28;20252;-78
2022/08/19 05:09:34;;;;;;;35.33;29.95;;;19.10;99.90;;;;;;5072798;28;20202;-78
2022/08/19 05:12:01;;;;;;;33.63;29.13;;;19.20;99.90;;;;;;5073112;28;20204;-78
2022/08/19 05:14:29;;;;;;;31.30;27.23;;;19.20;99.90;;;;;;5072943;28;20255;-78
2022/08/19 05:16:55;;;;;;;32.67;28.75;;;19.20;99.90;;;;;;5071936;28;20276;-78
2022/08/19 05:24:52;;;;;;;32.00;28.10;;;19.30;99.90;;;;;;5072989;28;20192;-78
2022/08/19 05:27:18;;;;;;;32.38;27.50;;;19.30;99.90;;;;;;5072768;28;20225;-77
2022/08/19 05:29:45;;;;;;;32.08;28.17;;;19.30;99.90;;;;;;5072799;28;20629;-78
2022/08/19 05:32:12;;;;;;;32.30;27.65;;;19.30;99.90;;;;;;5073002;28;20196;-78
2022/08/19 05:34:38;;;;;;;32.50;29.00;;;19.30;99.90;;;;;;5072668;28;20258;-78
2022/08/19 05:37:07;;;;;;;31.05;27.55;;;19.30;99.90;;;;;;5072735;28;20193;-78
2022/08/19 05:39:37;;;;;;;32.38;28.92;;;19.30;99.90;;;;;;5072940;28;20250;-78
2022/08/19 05:42:06;;;;;;;31.45;28.15;;;19.30;99.90;;;;;;5072415;28;20710;-78
2022/08/19 05:44:34;;;;;;;30.58;27.27;;;19.30;99.90;;;;;;5072825;28;20193;-77
2022/08/19 05:47:04;;;;;;;32.47;28.63;;;19.30;99.90;;;;;;5072577;28;20224;-77
2022/08/19 05:49:32;;;;;;;34.40;27.85;;;19.30;99.90;;;;;;5072722;28;20649;-77
2022/08/19 05:51:59;;;;;;;31.75;27.58;;;19.40;99.90;;;;;;5072598;28;20674;-77
2022/08/19 05:54:26;;;;;;;31.90;28.30;;;19.40;99.90;;;;;;5072698;28;20292;-77
2022/08/19 05:56:55;;;;;;;32.03;28.35;;;19.40;99.90;;;;;;5072600;28;20295;-77
2022/08/19 05:59:23;;;;;;;32.35;27.02;;;19.40;99.90;;;;;;5072491;28;20201;-77
2022/08/19 06:01:51;;;;;;;31.77;27.88;;;19.40;99.90;;;;;;5072379;28;20197;-77
2022/08/19 06:04:19;;;;;;;31.63;28.23;;;19.50;99.90;;;;;;5072522;28;20205;-77
2022/08/19 06:06:47;;;;;;;34.25;28.90;;;19.50;99.90;;;;;;5072230;28;20765;-77
2022/08/19 06:09:14;;;;;;;34.67;28.45;;;19.50;99.90;;;;;;5072331;28;20250;-77
2022/08/19 06:11:44;;;;;;;31.50;28.08;;;19.40;99.90;;;;;;5072315;28;20258;-77
2022/08/19 06:14:16;;;;;;;34.63;29.90;;;19.50;99.90;;;;;;5072312;28;20193;-77
2022/08/19 06:16:43;;;;;;;30.90;27.65;;;19.50;99.90;;;;;;5072528;28;20288;-77
2022/08/19 06:19:12;;;;;;;31.50;28.13;;;19.60;99.90;;;;;;5072377;28;20197;-77
2022/08/19 06:21:40;;;;;;;31.05;27.50;;;19.60;99.90;;;;;;5072318;28;20193;-77
2022/08/19 06:24:09;;;;;;;31.98;28.15;;;19.60;99.90;;;;;;5072369;28;20246;-77
2022/08/19 06:26:38;;;;;;;29.17;26.17;;;19.70;99.90;;;;;;5072243;28;20235;-77
2022/08/19 06:29:06;;;;;;;30.55;27.15;;;19.70;99.90;;;;;;5075061;28;20250;-77
2022/08/19 06:31:36;;;;;;;30.45;26.77;;;19.90;99.90;;;;;;5076122;28;20227;-78
2022/08/19 06:34:05;;;;;;;33.80;26.95;;;20.00;99.90;;;;;;5075941;28;20569;-77
2022/08/19 06:36:35;;;;;;;30.40;26.73;;;20.00;99.90;;;;;;5076092;28;20278;-77
2022/08/19 06:39:03;;;;;;;31.23;27.23;;;20.00;99.90;;;;;;5076169;28;20193;-77
2022/08/19 06:41:31;;;;;;;29.45;25.27;;;20.00;99.90;;;;;;5075482;28;20205;-77
2022/08/19 06:43:58;;;;;;;30.55;26.60;;;20.00;99.90;;;;;;5075271;28;20228;-77
2022/08/19 06:46:25;;;;;;;29.80;26.60;;;20.00;99.90;;;;;;5075383;28;20221;-77
2022/08/19 06:48:54;;;;;;;28.88;25.77;;;20.00;99.90;;;;;;5075276;28;20200;-77
2022/08/19 06:51:23;;;;;;;28.27;25.20;;;20.20;99.90;;;;;;5075163;28;20556;-77
2022/08/19 06:53:52;;;;;;;29.17;25.98;;;20.30;99.90;;;;;;5075429;28;20193;-77
2022/08/19 06:56:21;;;;;;;27.77;24.83;;;20.50;99.90;;;;;;5075249;28;20259;-77
2022/08/19 06:58:50;;;;;;;27.30;24.52;;;20.70;99.90;;;;;;5075219;28;20292;-77
2022/08/19 07:01:17;;;;;;;26.92;24.02;;;20.50;99.90;;;;;;5075235;28;20201;-77
2022/08/19 07:03:44;;;;;;;27.38;24.52;;;20.50;99.90;;;;;;5075018;28;20599;-77
2022/08/19 07:06:17;;;;;;;28.75;25.48;;;20.40;99.90;;;;;;5075041;28;20657;-77
2022/08/19 07:08:46;;;;;;;27.08;24.38;;;20.30;99.90;;;;;;5075554;28;20251;-77
2022/08/19 07:11:14;;;;;;;27.48;24.42;;;20.50;99.90;;;;;;5075436;28;20288;-77
2022/08/19 07:13:43;;;;;;;27.30;24.40;;;20.60;99.90;;;;;;5075154;28;20201;-77
2022/08/19 07:16:12;;;;;;;27.75;24.75;;;20.50;99.90;;;;;;5074867;28;20542;-77
2022/08/19 07:18:39;;;;;;;28.50;24.95;;;20.40;99.90;;;;;;5074551;28;20718;-77
2022/08/19 07:21:08;;;;;;;28.83;25.83;;;20.60;99.90;;;;;;5075060;28;20200;-77
2022/08/19 07:23:36;;;;;;;31.15;25.42;;;20.40;99.90;;;;;;5074656;28;20209;-77
2022/08/19 07:26:06;;;;;;;29.45;25.33;;;20.40;99.90;;;;;;5074654;28;20573;-77
2022/08/19 07:28:32;;;;;;;26.85;24.00;;;20.40;99.90;;;;;;5074605;28;20197;-77
2022/08/19 07:31:01;;;;;;;28.48;24.02;;;20.50;99.90;;;;;;5074563;28;20722;-77
2022/08/19 07:33:29;;;;;;;27.80;24.65;;;20.60;99.90;;;;;;5074412;28;20193;-77
2022/08/19 07:35:56;;;;;;;26.40;23.63;;;20.80;99.90;;;;;;5074584;28;20201;-77
2022/08/19 07:38:23;;;;;;;26.48;23.30;;;20.80;99.90;;;;;;5074390;28;20608;-77
2022/08/19 07:40:51;;;;;;;25.88;23.23;;;21.00;99.90;;;;;;5073785;28;20300;-77
2022/08/19 07:43:20;;;;;;;24.55;21.95;;;20.80;99.90;;;;;;5074307;28;20694;-77
2022/08/19 07:45:47;;;;;;;25.48;22.65;;;21.00;99.90;;;;;;5074365;28;20204;-77
2022/08/19 07:48:14;;;;;;;25.27;22.63;;;20.80;99.90;;;;;;5074381;28;20238;-77
2022/08/19 07:50:41;;;;;;;24.13;21.50;;;20.90;99.90;;;;;;5074332;28;20193;-78
2022/08/19 07:53:08;;;;;;;24.40;21.92;;;20.90;99.90;;;;;;5074132;28;20718;-77
2022/08/19 07:55:34;;;;;;;24.60;22.08;;;21.10;99.90;;;;;;5074015;28;20209;-78
2022/08/19 07:58:04;;;;;;;24.38;21.75;;;21.20;99.90;;;;;;5074095;28;20280;-78
2022/08/19 08:00:31;;;;;;;23.55;21.15;;;21.40;99.90;;;;;;5073863;28;20209;-78
2022/08/19 08:02:58;;;;;;;23.02;20.65;;;21.40;99.90;;;;;;5074048;28;20193;-78
2022/08/19 08:11:06;;;;;;;23.52;21.05;;;20.80;99.90;;;;;;5031696;28;20740;-76
2022/08/19 08:13:35;;;;;;;25.25;22.65;;;20.60;99.90;;;;;;5063790;28;20221;-78
2022/08/19 08:16:02;;;;;;;25.92;23.42;;;20.60;99.90;;;;;;5073807;28;20288;-79
2022/08/19 08:18:29;;;;;;;24.80;22.30;;;20.30;99.90;;;;;;5073708;28;20618;-78
2022/08/19 08:20:56;;;;;;;28.77;25.65;;;20.20;99.90;;;;;;5073576;28;20611;-78
2022/08/19 08:23:24;;;;;;;27.17;24.27;;;20.00;99.90;;;;;;5073491;28;20247;-78
2022/08/19 08:25:53;;;;;;;25.60;23.10;;;20.00;99.90;;;;;;5073660;28;20225;-77
2022/08/19 08:28:20;;;;;;;25.73;22.92;;;19.90;99.90;;;;;;5073149;28;20225;-78
2022/08/19 08:30:49;;;;;;;28.38;25.30;;;19.90;99.90;;;;;;5073403;28;20201;-78
2022/08/19 08:33:21;;;;;;;28.52;25.15;;;19.90;99.90;;;;;;5073283;28;20251;-78
2022/08/19 08:35:48;;;;;;;27.30;24.38;;;20.10;99.90;;;;;;5073096;28;20724;-78
2022/08/19 08:38:15;;;;;;;25.42;22.70;;;20.30;99.90;;;;;;5073346;28;20274;-78
2022/08/19 08:40:45;;;;;;;26.63;23.90;;;20.40;99.90;;;;;;5073209;28;20193;-78
2022/08/19 08:43:30;;;;;;;25.40;22.63;;;20.50;99.90;;;;;;5073176;28;20259;-78
2022/08/19 08:46:02;;;;;;;25.52;22.73;;;20.50;99.90;;;;;;5073195;28;20296;-78
2022/08/19 08:48:36;;;;;;;26.70;23.90;;;20.60;99.90;;;;;;5073080;28;20232;-78
2022/08/19 08:51:08;;;;;;;25.73;23.00;;;20.50;99.90;;;;;;5055102;28;20620;-78
2022/08/19 08:53:36;;;;;;;26.45;23.63;;;20.40;99.90;;;;;;5073293;28;20397;-78
2022/08/19 08:56:06;;;;;;;27.55;23.90;;;20.60;99.90;;;;;;5073176;28;20244;-78
2022/08/19 08:58:45;;;;;;;27.45;22.83;;;20.60;99.90;;;;;;5073185;28;20213;-78
2022/08/19 09:01:15;;;;;;;26.50;23.67;;;20.70;99.90;;;;;;5073017;28;20246;-78
2022/08/19 09:03:43;;;;;;;24.52;22.00;;;20.90;99.90;;;;;;5073032;28;20250;-78
2022/08/19 09:06:19;;;;;;;23.30;21.10;;;21.00;99.90;;;;;;5072786;28;20223;-78
2022/08/19 09:08:53;;;;;;;24.95;22.45;;;21.10;99.90;;;;;;5072883;28;20232;-79
2022/08/19 09:11:26;;;;;;;27.45;22.80;;;21.10;99.90;;;;;;5073076;28;20279;-78
2022/08/19 09:14:08;;;;;;;24.38;21.55;;;21.00;99.90;;;;;;5073012;28;20197;-78
2022/08/19 09:16:38;;;;;;;24.52;22.13;;;21.20;99.90;;;;;;5072769;28;20207;-78
2022/08/19 09:19:06;;;;;;;24.30;21.90;;;21.20;99.90;;;;;;5073219;28;20200;-79
2022/08/19 09:21:34;;;;;;;25.25;22.75;;;21.20;99.90;;;;;;5073037;28;20197;-78
2022/08/19 09:24:01;;;;;;;24.98;22.17;;;21.20;99.90;;;;;;5073325;28;20204;-78
2022/08/19 09:26:29;;;;;;;23.73;21.25;;;21.30;99.90;;;;;;5073256;28;20192;-79
2022/08/19 09:28:57;;;;;;;25.35;22.45;;;21.30;99.90;;;;;;5073508;28;20319;-78
2022/08/19 09:31:26;;;;;;;24.30;21.92;;;21.50;99.90;;;;;;5072788;28;20569;-78
2022/08/19 09:33:56;;;;;;;22.75;20.30;;;21.50;99.90;;;;;;5072585;28;20196;-78
2022/08/19 09:36:25;;;;;;;23.60;21.25;;;21.50;99.90;;;;;;5072565;28;20213;-76
2022/08/19 09:38:52;;;;;;;23.60;21.23;;;21.60;99.90;;;;;;5072815;28;20292;-77
2022/08/19 09:41:23;;;;;;;22.80;20.50;;;21.50;99.90;;;;;;5072630;28;20196;-78
2022/08/19 09:43:53;;;;;;;24.30;21.80;;;21.60;99.90;;;;;;5072399;28;20221;-78
2022/08/19 09:46:21;;;;;;;23.58;21.08;;;21.70;99.90;;;;;;5072551;28;20292;-78
2022/08/19 09:48:50;;;;;;;22.63;20.35;;;21.90;99.90;;;;;;5072268;28;20220;-78
2022/08/19 09:51:21;;;;;;;22.80;20.50;;;22.00;99.90;;;;;;5072709;28;20285;-78
2022/08/19 09:53:49;;;;;;;22.85;20.75;;;22.20;99.90;;;;;;5072671;28;20199;-78
2022/08/19 09:56:18;;;;;;;21.35;19.25;;;22.30;99.90;;;;;;5072490;28;20208;-78
2022/08/19 09:58:46;;;;;;;21.30;19.38;;;22.60;99.90;;;;;;5072429;28;20201;-78
2022/08/19 10:01:18;;;;;;;21.33;19.23;;;22.60;99.90;;;;;;5072515;28;20205;-78
2022/08/19 10:03:49;;;;;;;20.60;18.52;;;22.50;99.90;;;;;;5075087;28;20196;-78
2022/08/19 10:06:16;;;;;;;21.33;19.23;;;22.60;99.90;;;;;;5076774;28;20687;-77
2022/08/19 10:08:44;;;;;;;21.20;19.27;;;22.50;99.90;;;;;;5078763;28;20563;-77
2022/08/19 10:11:11;;;;;;;21.27;19.02;;;22.30;99.90;;;;;;5079710;28;20266;-78
2022/08/19 10:13:38;;;;;;;21.20;19.20;;;22.20;99.90;;;;;;5076426;28;20201;-79
2022/08/19 10:16:07;;;;;;;21.83;19.70;;;22.30;99.90;;;;;;5076139;28;20196;-77
2022/08/19 10:18:34;;;;;;;21.45;19.33;;;22.50;99.90;;;;;;5076300;28;20205;-77
2022/08/19 10:21:08;;;;;;;20.63;18.63;;;22.30;99.90;;;;;;5076185;28;20201;-78
2022/08/19 10:23:36;;;;;;;21.08;19.05;;;22.20;99.90;;;;;;5076005;28;20197;-77
2022/08/19 10:26:06;;;;;;;20.75;18.70;;;22.00;99.90;;;;;;5075868;28;20197;-78
2022/08/19 10:28:33;;;;;;;22.85;19.63;;;21.90;99.90;;;;;;5075799;28;20233;-78
2022/08/19 10:31:06;;;;;;;21.55;19.42;;;22.00;99.90;;;;;;5076025;28;20207;-76
2022/08/19 10:33:33;;;;;;;20.98;18.88;;;21.90;99.90;;;;;;5075932;28;20207;-78
2022/08/19 10:36:01;;;;;;;21.05;19.05;;;22.20;99.90;;;;;;5075810;28;20193;-78
2022/08/19 10:38:28;;;;;;;20.88;18.75;;;22.20;99.90;;;;;;5075838;28;20668;-78
2022/08/19 10:40:55;;;;;;;21.00;19.00;;;22.40;99.90;;;;;;5075683;28;20216;-78
2022/08/19 10:43:23;;;;;;;21.02;18.88;;;22.30;99.90;;;;;;5075545;28;20599;-79
2022/08/19 10:45:54;;;;;;;21.67;19.58;;;22.00;99.90;;;;;;5075622;28;20197;-77
2022/08/19 10:48:21;;;;;;;21.45;19.45;;;22.10;99.90;;;;;;5075585;28;20228;-77
2022/08/19 10:53:37;;;;;;;21.52;19.33;;;22.00;99.90;;;;;;5036822;28;20201;-78
2022/08/19 10:58:49;;;;;;;21.92;19.77;;;22.10;99.90;;;;;;5075228;28;20560;-78
2022/08/19 11:01:16;;;;;;;20.98;18.75;;;21.90;99.90;;;;;;5075421;28;20212;-78
2022/08/19 11:03:45;;;;;;;20.45;18.27;;;21.80;99.90;;;;;;5075085;28;20247;-78
2022/08/19 11:06:12;;;;;;;21.15;19.05;;;22.00;99.90;;;;;;5075327;28;20193;-78
2022/08/19 11:08:39;;;;;;;22.17;19.13;;;22.10;99.90;;;;;;5075087;28;20241;-77
2022/08/19 11:11:07;;;;;;;20.58;18.63;;;22.10;99.90;;;;;;5075069;28;20253;-77
2022/08/19 11:13:37;;;;;;;21.13;18.95;;;22.00;99.90;;;;;;5074939;28;20219;-78
2022/08/19 11:16:09;;;;;;;20.90;18.67;;;22.00;99.90;;;;;;5074893;28;20201;-77
2022/08/19 11:18:37;;;;;;;23.55;19.20;;;21.80;99.90;;;;;;5074818;28;20611;-78
2022/08/19 11:21:16;;;;;;;21.08;19.17;;;21.80;99.90;;;;;;5075143;28;20197;-78
2022/08/19 11:23:44;;;;;;;21.05;19.02;;;21.70;99.90;;;;;;5075722;28;20569;-76
2022/08/19 11:26:10;;;;;;;21.25;18.15;;;21.60;99.90;;;;;;5075404;28;20193;-78
2022/08/19 11:28:38;;;;;;;20.17;18.17;;;21.60;99.90;;;;;;5074514;28;20220;-77
2022/08/19 11:31:11;;;;;;;22.42;20.15;;;21.70;99.90;;;;;;5074873;28;20196;-78
2022/08/19 11:33:38;;;;;;;21.35;19.08;;;21.50;99.90;;;;;;5056954;28;20197;-77
2022/08/19 11:36:05;;;;;;;21.30;19.25;;;21.50;99.90;;;;;;5074901;28;20197;-77
2022/08/19 11:38:32;;;;;;;20.85;18.95;;;21.50;99.90;;;;;;5074552;28;20266;-77
2022/08/19 11:41:00;;;;;;;23.52;20.13;;;21.30;99.90;;;;;;5074444;28;20228;-77
2022/08/19 11:43:28;;;;;;;22.77;20.50;;;21.20;99.90;;;;;;5074121;28;20229;-77
2022/08/19 11:45:55;;;;;;;23.30;20.95;;;21.20;99.90;;;;;;5074359;28;20246;-77
2022/08/19 11:48:25;;;;;;;23.80;21.40;;;21.10;99.90;;;;;;5074292;28;20217;-78
2022/08/19 11:50:55;;;;;;;22.95;20.50;;;21.10;99.90;;;;;;5074135;28;20604;-78
2022/08/19 11:53:21;;;;;;;22.60;20.40;;;21.10;99.90;;;;;;5074321;28;20205;-78
2022/08/19 11:55:49;;;;;;;23.50;21.30;;;21.00;99.90;;;;;;5073966;28;20258;-78
2022/08/19 11:58:17;;;;;;;23.40;20.92;;;21.00;99.90;;;;;;5074848;28;20201;-78
2022/08/19 12:00:45;;;;;;;23.08;20.83;;;20.90;99.90;;;;;;5074257;28;20265;-78
2022/08/19 12:03:12;;;;;;;22.40;20.33;;;20.90;99.90;;;;;;5074026;28;20247;-78
2022/08/19 12:05:41;;;;;;;21.58;19.45;;;20.90;99.90;;;;;;5073848;28;20201;-78
2022/08/19 12:08:09;;;;;;;20.52;18.63;;;20.90;99.90;;;;;;5073733;28;20719;-78
2022/08/19 12:10:36;;;;;;;20.65;18.52;;;20.90;99.90;;;;;;5073793;28;20201;-78
2022/08/19 12:13:03;;;;;;;19.15;17.35;;;21.00;99.90;;;;;;5073741;28;20219;-78
2022/08/19 12:15:30;;;;;;;18.95;17.25;;;21.10;99.90;;;;;;5073861;28;20197;-78
2022/08/19 12:17:58;;;;;;;18.38;16.63;;;21.10;99.90;;;;;;5073749;28;20539;-77
2022/08/19 12:20:25;;;;;;;18.42;16.63;;;21.20;99.90;;;;;;5073595;28;20715;-78
2022/08/19 12:22:54;;;;;;;18.77;16.98;;;21.20;99.90;;;;;;5073538;28;20272;-77
2022/08/19 12:25:21;;;;;;;17.95;16.45;;;21.20;99.90;;;;;;5073388;28;20193;-77
2022/08/19 12:27:48;;;;;;;18.25;16.55;;;21.10;99.90;;;;;;5073199;28;20749;-78
2022/08/19 12:30:15;;;;;;;20.23;18.23;;;21.10;99.90;;;;;;5073607;28;20283;-78
2022/08/19 12:32:42;;;;;;;20.13;18.33;;;21.10;99.90;;;;;;5073589;28;20197;-77
2022/08/19 12:35:11;;;;;;;21.95;19.73;;;20.70;99.90;;;;;;5073461;28;20200;-75
2022/08/19 12:37:38;;;;;;;22.42;20.30;;;20.30;99.90;;;;;;5073259;28;20211;-77
2022/08/19 12:40:08;;;;;;;23.42;21.13;;;20.20;99.90;;;;;;5073377;28;20207;-75
2022/08/19 12:42:34;;;;;;;22.90;20.90;;;20.10;99.90;;;;;;5073271;28;20225;-76
2022/08/19 12:45:01;;;;;;;23.15;20.75;;;20.00;99.90;;;;;;5073578;28;20197;-75
2022/08/19 12:47:28;;;;;;;21.88;19.98;;;20.00;99.90;;;;;;5073086;28;20197;-74
2022/08/19 12:49:56;;;;;;;23.98;21.80;;;20.10;99.90;;;;;;5072928;28;20236;-77
2022/08/19 12:52:24;;;;;;;24.10;21.58;;;20.10;99.90;;;;;;5073685;28;20208;-74